Terminal Aerodrome Forecast
Issued by NWS

Current Version | Previous Version | Graphics & Text | Print | Product List | Glossary On
Versions: 1 2 3 4 5 6 7 8 9 10 11 12 13 14 15 16 17 18 19 20 21 22 23 24 25 26
000
FTUS41 KRLX 281300 AAA
TAFCKB
TAF AMD
KCKB 281320Z 2813/2912 36006KT P6SM OVC010
      TEMPO 2813/2814 BKN025
     FM281400 35004KT P6SM BKN025
      TEMPO 2814/2816 SCT025
     FM281600 01004KT P6SM SCT035
     FM290500 00000KT 6SM BR FEW200
     FM290800 00000KT 3SM BR FEW200
     FM291000 00000KT 1SM BR SCT001=

USA.gov is the U.S. government's official web portal to all federal, state and local government web resources and services.